createdAt,value
2022-08-28T00:00:47.716Z,38.24
2022-08-28T00:02:50.113Z,38.82
2022-08-28T00:04:52.950Z,38.37
2022-08-28T00:06:55.375Z,38.23
2022-08-28T00:08:57.577Z,38.94
2022-08-28T00:10:59.836Z,38.57
2022-08-28T00:13:02.708Z,39.01
2022-08-28T00:15:12.874Z,39.55
2022-08-28T00:17:15.046Z,39.30
2022-08-28T00:19:24.115Z,39.67
2022-08-28T00:21:26.246Z,39.43
2022-08-28T00:23:42.397Z,39.58
2022-08-28T00:25:45.147Z,39.55
2022-08-28T00:27:53.493Z,39.53
2022-08-28T00:29:57.446Z,39.42
2022-08-28T00:32:00.154Z,39.25
2022-08-28T00:34:03.274Z,39.27
2022-08-28T00:36:05.607Z,39.68
2022-08-28T00:38:09.493Z,39.39
2022-08-28T00:40:15.913Z,39.77
2022-08-28T00:42:18.481Z,39.68
2022-08-28T00:44:23.440Z,39.41
2022-08-28T00:46:28.532Z,39.50
2022-08-28T00:48:30.889Z,40.12
2022-08-28T00:51:00.300Z,39.77
2022-08-28T00:53:06.056Z,40.30
2022-08-28T00:55:13.794Z,39.88
2022-08-28T00:57:20.312Z,39.75
2022-08-28T00:59:25.426Z,39.88
2022-08-28T01:01:27.583Z,39.87
2022-08-28T01:03:29.731Z,39.72
2022-08-28T01:05:33.384Z,40.15
2022-08-28T01:07:37.398Z,39.81
2022-08-28T01:09:44.114Z,40.26
2022-08-28T01:11:48.525Z,40.36
2022-08-28T01:13:54.549Z,40.18
2022-08-28T01:15:58.444Z,39.92
2022-08-28T01:18:09.568Z,40.44
2022-08-28T01:20:22.207Z,40.59
2022-08-28T01:22:31.080Z,40.56
2022-08-28T01:24:35.837Z,40.55
2022-08-28T01:26:38.745Z,41.19
2022-08-28T01:28:41.554Z,41.08
2022-08-28T01:30:47.755Z,41.79
2022-08-28T01:32:53.905Z,40.75
2022-08-28T01:34:59.572Z,40.96
2022-08-28T01:37:02.908Z,40.91
2022-08-28T01:39:12.223Z,41.27
2022-08-28T01:41:15.064Z,40.83
2022-08-28T01:43:21.020Z,41.37
2022-08-28T01:45:24.324Z,41.05
2022-08-28T01:47:26.435Z,41.31
2022-08-28T01:49:29.624Z,41.10
2022-08-28T01:51:35.077Z,41.29
2022-08-28T01:53:41.791Z,41.31
2022-08-28T01:55:47.284Z,41.61
2022-08-28T01:57:53.391Z,41.08
2022-08-28T01:59:55.694Z,41.28
2022-08-28T02:01:57.709Z,41.80
2022-08-28T02:04:00.925Z,42.19
2022-08-28T02:06:03.362Z,42.41
2022-08-28T02:08:06.649Z,42.23
2022-08-28T02:10:10.457Z,42.07
2022-08-28T02:12:12.597Z,41.78
2022-08-28T02:14:15.198Z,41.93
2022-08-28T02:16:17.342Z,41.65
2022-08-28T02:18:19.892Z,41.83
2022-08-28T02:20:23.231Z,41.57
2022-08-28T02:22:25.248Z,41.56
2022-08-28T02:24:27.345Z,41.86
2022-08-28T02:26:30.470Z,41.68
2022-08-28T02:28:32.568Z,41.42
2022-08-28T02:30:35.514Z,42.19
2022-08-28T02:32:38.369Z,42.61
2022-08-28T02:34:42.333Z,42.11
2022-08-28T02:36:47.336Z,41.74
2022-08-28T02:38:55.341Z,42.39
2022-08-28T02:40:59.675Z,42.04
2022-08-28T02:43:06.344Z,42.14
2022-08-28T02:45:10.944Z,42.31
2022-08-28T02:47:18.776Z,42.24
2022-08-28T02:49:21.016Z,41.92
2022-08-28T02:51:23.050Z,41.92
2022-08-28T02:53:25.509Z,42.07
2022-08-28T02:55:31.306Z,42.45
2022-08-28T02:57:39.228Z,41.82
2022-08-28T02:59:41.626Z,42.67
2022-08-28T03:01:44.599Z,43.12
2022-08-28T03:03:46.882Z,42.78
2022-08-28T03:05:49.783Z,42.41
2022-08-28T03:07:53.739Z,43.14
2022-08-28T03:09:56.328Z,43.60
2022-08-28T03:11:58.463Z,43.35
2022-08-28T03:14:03.374Z,43.70
2022-08-28T03:16:05.868Z,43.69
2022-08-28T03:18:11.084Z,43.15
2022-08-28T03:20:15.211Z,43.45
2022-08-28T03:22:18.523Z,43.27
2022-08-28T03:24:23.813Z,42.94
2022-08-28T03:26:26.064Z,42.91
2022-08-28T03:28:31.578Z,42.97
2022-08-28T03:30:33.746Z,43.05
2022-08-28T03:32:35.956Z,43.25
2022-08-28T03:34:38.175Z,43.02
2022-08-28T03:36:40.348Z,43.41
2022-08-28T03:38:42.613Z,42.87
2022-08-28T03:40:46.724Z,42.79
2022-08-28T03:42:53.028Z,43.01
2022-08-28T03:44:56.025Z,42.78
2022-08-28T03:46:58.059Z,43.32
2022-08-28T03:49:02.820Z,43.45
2022-08-28T03:51:09.999Z,43.29
2022-08-28T03:53:12.794Z,43.32
2022-08-28T03:55:15.497Z,43.63
2022-08-28T03:57:21.825Z,44.34
2022-08-28T03:59:26.678Z,44.03
2022-08-28T04:01:34.604Z,44.09
2022-08-28T04:03:37.037Z,44.13
2022-08-28T04:05:40.637Z,44.10
2022-08-28T04:07:42.811Z,44.58
2022-08-28T04:09:45.865Z,44.35
2022-08-28T04:11:48.024Z,44.23
2022-08-28T04:13:58.975Z,44.67
2022-08-28T04:16:06.517Z,45.05
2022-08-28T04:18:11.222Z,44.84
2022-08-28T04:20:13.742Z,44.76
2022-08-28T04:22:17.136Z,45.06
2022-08-28T04:24:20.583Z,44.68
2022-08-28T04:26:25.244Z,45.51
2022-08-28T04:28:27.963Z,45.60
2022-08-28T04:30:30.532Z,45.32
2022-08-28T04:32:35.659Z,45.46
2022-08-28T04:34:38.775Z,44.93
2022-08-28T04:36:44.060Z,45.31
2022-08-28T04:38:49.376Z,45.18
2022-08-28T04:40:51.642Z,45.26
2022-08-28T04:42:54.093Z,45.52
2022-08-28T04:44:59.770Z,45.35
2022-08-28T04:47:02.356Z,45.41
2022-08-28T04:49:06.188Z,45.08
2022-08-28T04:51:11.539Z,45.43
2022-08-28T04:53:15.305Z,45.15
2022-08-28T04:55:18.248Z,45.21
2022-08-28T04:57:39.810Z,46.07
2022-08-28T04:59:45.307Z,45.71
2022-08-28T05:01:47.878Z,46.15
2022-08-28T05:03:57.868Z,47.01
2022-08-28T05:06:00.108Z,46.51
2022-08-28T05:08:02.713Z,47.72
2022-08-28T05:10:06.094Z,46.86
2022-08-28T05:12:08.833Z,46.60
2022-08-28T05:14:15.868Z,46.30
2022-08-28T05:16:20.132Z,46.11
2022-08-28T05:18:24.331Z,46.37
2022-08-28T05:20:26.810Z,46.50
2022-08-28T05:22:31.772Z,46.61
2022-08-28T05:24:35.426Z,46.33
2022-08-28T05:26:40.316Z,46.17
2022-08-28T05:28:42.859Z,45.88
2022-08-28T05:30:46.333Z,47.43
2022-08-28T05:32:48.506Z,46.46
2022-08-28T05:34:50.637Z,46.52
2022-08-28T05:36:52.927Z,46.42
2022-08-28T05:38:58.156Z,46.36
2022-08-28T05:41:01.272Z,46.37
2022-08-28T05:43:03.670Z,45.84
2022-08-28T05:45:07.232Z,45.23
2022-08-28T05:47:09.756Z,45.01
2022-08-28T05:49:13.689Z,45.02
2022-08-28T05:51:23.944Z,45.02
2022-08-28T05:53:27.003Z,45.09
2022-08-28T05:55:29.114Z,45.46
2022-08-28T05:57:31.646Z,45.85
2022-08-28T05:59:34.169Z,45.33
2022-08-28T06:01:40.660Z,45.54
2022-08-28T06:03:45.508Z,45.17
2022-08-28T06:05:57.815Z,44.28
2022-08-28T06:08:00.323Z,44.32
2022-08-28T06:10:02.747Z,44.18
2022-08-28T06:12:05.864Z,43.94
2022-08-28T06:14:11.010Z,44.44
2022-08-28T06:16:14.101Z,43.83
2022-08-28T06:18:17.875Z,44.07
2022-08-28T06:20:21.089Z,43.57
2022-08-28T06:22:23.575Z,43.72
2022-08-28T06:24:30.498Z,43.79
2022-08-28T06:26:32.663Z,44.13
2022-08-28T06:28:34.927Z,43.72
2022-08-28T06:30:52.847Z,43.37
2022-08-28T06:33:06.751Z,44.23
2022-08-28T06:35:09.046Z,44.14
2022-08-28T06:37:12.651Z,43.95
2022-08-28T06:39:15.561Z,44.09
2022-08-28T06:41:20.682Z,44.48
2022-08-28T06:43:26.346Z,43.47
2022-08-28T06:45:28.630Z,43.34
2022-08-28T06:47:30.780Z,43.08
2022-08-28T06:49:33.576Z,43.01
2022-08-28T06:51:36.710Z,42.85
2022-08-28T06:53:41.465Z,43.02
2022-08-28T06:55:43.864Z,43.68
2022-08-28T06:57:46.575Z,43.46
2022-08-28T06:59:49.391Z,42.96
2022-08-28T07:01:54.924Z,42.69
2022-08-28T07:04:02.602Z,43.14
2022-08-28T07:06:06.639Z,43.48
2022-08-28T07:08:11.913Z,43.33
2022-08-28T07:10:14.262Z,43.22
2022-08-28T07:12:18.048Z,43.05
2022-08-28T07:14:20.148Z,42.68
2022-08-28T07:16:31.829Z,43.56
2022-08-28T07:18:33.983Z,42.97
2022-08-28T07:20:36.494Z,42.59
2022-08-28T07:22:41.048Z,42.12
2022-08-28T07:24:43.336Z,41.72
2022-08-28T07:26:47.397Z,41.65
2022-08-28T07:28:51.990Z,41.77
2022-08-28T07:30:59.660Z,41.91
2022-08-28T07:33:02.558Z,41.69
2022-08-28T07:35:05.129Z,41.26
2022-08-28T07:37:12.150Z,41.23
2022-08-28T07:39:17.169Z,41.52
2022-08-28T07:41:22.453Z,41.24
2022-08-28T07:43:42.937Z,41.39
2022-08-28T07:45:45.406Z,40.70
2022-08-28T07:47:47.695Z,39.73
2022-08-28T07:49:50.248Z,39.01
2022-08-28T07:51:54.387Z,38.46
2022-08-28T07:54:00.396Z,39.01
2022-08-28T07:56:03.097Z,38.50
2022-08-28T07:58:06.214Z,38.61
2022-08-28T08:00:09.018Z,36.71
2022-08-28T08:02:16.706Z,36.66
2022-08-28T08:04:21.249Z,36.64
2022-08-28T08:06:28.913Z,36.81
2022-08-28T08:08:36.806Z,35.88
2022-08-28T08:10:38.898Z,35.85
2022-08-28T08:12:42.990Z,35.99
2022-08-28T08:14:45.969Z,36.05
2022-08-28T08:16:48.903Z,35.72
2022-08-28T08:18:52.244Z,35.55
2022-08-28T08:20:54.473Z,35.07
2022-08-28T08:22:56.997Z,34.91
2022-08-28T08:24:59.221Z,35.04
2022-08-28T08:27:02.780Z,35.09
2022-08-28T08:29:05.134Z,35.26
2022-08-28T08:31:11.696Z,35.00
2022-08-28T08:33:13.974Z,34.60
2022-08-28T08:35:17.544Z,34.71
2022-08-28T08:37:19.847Z,35.19
2022-08-28T08:39:22.196Z,34.46
2022-08-28T08:41:55.810Z,33.56
2022-08-28T08:44:07.960Z,34.18
2022-08-28T08:46:10.934Z,34.08
2022-08-28T08:48:32.799Z,33.95
2022-08-28T08:50:36.146Z,34.01
2022-08-28T08:52:44.310Z,34.03
2022-08-28T08:55:04.977Z,32.78
2022-08-28T08:57:12.360Z,32.83
2022-08-28T08:59:18.880Z,32.32
2022-08-28T09:01:30.021Z,32.37
2022-08-28T09:03:38.925Z,32.47
2022-08-28T09:05:52.604Z,31.88
2022-08-28T09:07:59.479Z,32.62
2022-08-28T09:10:02.358Z,31.87
2022-08-28T09:12:07.400Z,31.62
2022-08-28T09:14:17.157Z,30.88
2022-08-28T09:16:32.564Z,30.95
2022-08-28T09:18:35.939Z,31.29
2022-08-28T09:20:42.976Z,30.66
2022-08-28T09:22:50.694Z,31.15
2022-08-28T09:24:53.369Z,30.64
2022-08-28T09:27:12.316Z,30.44
2022-08-28T09:29:23.719Z,30.50
2022-08-28T09:31:36.711Z,29.37
2022-08-28T09:33:51.475Z,29.13
2022-08-28T09:35:53.890Z,29.81
2022-08-28T09:38:15.718Z,29.51
2022-08-28T09:40:52.233Z,30.11
2022-08-28T09:43:20.267Z,29.94
2022-08-28T09:45:27.532Z,29.61
2022-08-28T09:47:57.574Z,29.07
2022-08-28T09:50:30.011Z,29.25
2022-08-28T09:52:32.355Z,29.55
2022-08-28T09:54:44.862Z,28.65
2022-08-28T09:56:47.755Z,29.10
2022-08-28T09:58:54.726Z,29.50
2022-08-28T10:01:04.463Z,28.28
2022-08-28T10:03:26.920Z,28.42
2022-08-28T10:05:39.198Z,28.74
2022-08-28T10:08:26.649Z,28.33
2022-08-28T10:10:44.650Z,28.94
2022-08-28T10:12:52.650Z,28.65
2022-08-28T10:15:27.605Z,28.13
2022-08-28T10:17:49.003Z,28.66
2022-08-28T10:20:13.831Z,27.57
2022-08-28T10:27:02.137Z,26.59
2022-08-28T10:29:24.136Z,27.25
2022-08-28T10:31:46.481Z,26.86
2022-08-28T10:34:20.924Z,26.84
2022-08-28T10:36:34.502Z,27.02
2022-08-28T10:38:49.566Z,26.34
2022-08-28T10:41:05.217Z,26.55
2022-08-28T10:43:14.087Z,26.28
2022-08-28T10:45:21.093Z,26.42
2022-08-28T10:47:26.470Z,26.02
2022-08-28T10:49:42.201Z,25.84
2022-08-28T10:51:51.293Z,25.96
2022-08-28T10:53:58.805Z,25.95
2022-08-28T10:56:19.799Z,25.93
2022-08-28T10:58:26.441Z,25.65
2022-08-28T11:00:29.949Z,25.99
2022-08-28T11:02:33.103Z,25.23
2022-08-28T11:04:35.901Z,25.72
2022-08-28T11:06:46.654Z,25.11
2022-08-28T11:08:56.129Z,24.94
2022-08-28T11:11:04.165Z,25.38
2022-08-28T11:13:09.995Z,25.10
2022-08-28T11:15:34.226Z,25.01
2022-08-28T11:17:42.245Z,24.95
2022-08-28T11:19:59.521Z,25.27
2022-08-28T11:22:15.321Z,25.84
2022-08-28T11:24:23.758Z,24.95
2022-08-28T11:26:39.206Z,25.07
2022-08-28T11:28:46.899Z,24.67
2022-08-28T11:31:19.235Z,24.44
2022-08-28T11:33:37.429Z,24.65
2022-08-28T11:35:48.610Z,24.05
2022-08-28T11:37:54.977Z,24.42
2022-08-28T11:40:17.568Z,24.22
2022-08-28T11:42:35.292Z,24.13
2022-08-28T11:44:45.279Z,24.12
2022-08-28T11:46:52.311Z,24.09
2022-08-28T11:48:57.317Z,23.90
2022-08-28T11:51:09.434Z,23.68
2022-08-28T11:53:24.278Z,22.95
2022-08-28T11:56:07.080Z,22.67
2022-08-28T11:58:17.198Z,22.89
2022-08-28T12:00:53.054Z,23.46
2022-08-28T12:03:07.251Z,23.97
2022-08-28T12:05:09.488Z,23.73
2022-08-28T12:07:11.725Z,24.17
2022-08-28T12:09:26.302Z,23.60
2022-08-28T12:11:41.923Z,23.90
2022-08-28T12:13:52.133Z,23.78
2022-08-28T12:16:06.988Z,23.00
2022-08-28T12:18:14.873Z,22.83
2022-08-28T12:20:26.155Z,23.55
2022-08-28T12:22:53.389Z,23.25
2022-08-28T12:25:03.591Z,23.33
2022-08-28T12:27:08.587Z,23.63
2022-08-28T12:29:35.137Z,23.24
2022-08-28T12:32:12.630Z,22.24
2022-08-28T12:34:28.997Z,22.73
2022-08-28T12:36:31.405Z,22.92
2022-08-28T12:38:37.937Z,22.57
2022-08-28T12:40:53.609Z,22.13
2022-08-28T12:43:01.071Z,22.81
2022-08-28T12:45:10.297Z,22.69
2022-08-28T12:47:19.205Z,23.27
2022-08-28T12:49:37.845Z,22.28
2022-08-28T12:51:42.321Z,22.95
2022-08-28T12:53:47.806Z,22.73
2022-08-28T12:55:50.309Z,22.91
2022-08-28T12:57:53.712Z,22.99
2022-08-28T13:00:09.495Z,23.08
2022-08-28T13:02:23.789Z,22.97
2022-08-28T13:04:34.425Z,22.06
2022-08-28T13:06:39.562Z,22.30
2022-08-28T13:08:42.263Z,22.45
2022-08-28T13:10:52.244Z,23.10
2022-08-28T13:13:11.363Z,22.92
2022-08-28T13:15:14.377Z,22.89
2022-08-28T13:17:45.063Z,22.60
2022-08-28T13:20:03.640Z,22.79
2022-08-28T13:22:09.552Z,22.53
2022-08-28T13:24:21.299Z,22.09
2022-08-28T13:26:37.906Z,22.28
2022-08-28T13:28:43.075Z,22.36
2022-08-28T13:30:58.630Z,22.02
2022-08-28T13:33:05.139Z,22.37
2022-08-28T13:35:07.392Z,22.21
2022-08-28T13:37:30.992Z,22.76
2022-08-28T13:39:37.901Z,21.83
2022-08-28T13:41:40.938Z,22.14
2022-08-28T13:43:46.902Z,22.30
2022-08-28T13:45:50.527Z,22.45
2022-08-28T13:47:53.487Z,22.49
2022-08-28T13:49:56.375Z,22.57
2022-08-28T13:52:01.176Z,22.21
2022-08-28T13:54:04.102Z,22.82
2022-08-28T13:56:08.413Z,22.25
2022-08-28T13:58:11.813Z,22.31
2022-08-28T14:00:15.397Z,22.72
2022-08-28T14:02:42.066Z,22.42
2022-08-28T14:04:45.313Z,22.93
2022-08-28T14:06:47.880Z,22.80
2022-08-28T14:08:51.094Z,22.79
2022-08-28T14:10:53.547Z,22.86
2022-08-28T14:12:56.372Z,22.65
2022-08-28T14:14:58.558Z,22.85
2022-08-28T14:17:02.020Z,22.53
2022-08-28T14:19:06.377Z,22.54
2022-08-28T14:21:08.644Z,22.74
2022-08-28T14:23:11.366Z,22.50
2022-08-28T14:25:14.249Z,22.70
2022-08-28T14:27:19.906Z,22.59
2022-08-28T14:29:23.145Z,22.57
2022-08-28T14:31:26.830Z,22.30
2022-08-28T14:33:29.641Z,23.03
2022-08-28T14:35:41.096Z,23.21
2022-08-28T14:45:45.963Z,23.48
2022-08-28T14:47:48.162Z,23.10
2022-08-28T14:49:50.863Z,23.60
2022-08-28T14:51:57.338Z,24.79
2022-08-28T14:54:01.398Z,24.53
2022-08-28T14:56:07.883Z,24.10
2022-08-28T14:58:11.145Z,23.86
2022-08-28T15:00:16.118Z,23.35
2022-08-28T15:02:19.073Z,23.17
2022-08-28T15:04:23.881Z,23.62
2022-08-28T15:06:28.149Z,23.61
2022-08-28T15:08:33.395Z,23.94
2022-08-28T15:10:39.141Z,23.79
2022-08-28T15:12:42.503Z,24.18
2022-08-28T15:14:55.236Z,23.85
2022-08-28T15:17:00.371Z,24.48
2022-08-28T15:19:03.874Z,23.71
2022-08-28T15:21:21.969Z,23.77
2022-08-28T15:23:24.947Z,23.86
2022-08-28T15:25:27.488Z,24.04
2022-08-28T15:27:30.229Z,24.06
2022-08-28T15:29:32.693Z,24.13
2022-08-28T15:31:38.795Z,24.27
2022-08-28T15:33:45.385Z,24.05
2022-08-28T15:35:48.428Z,24.50
2022-08-28T15:37:51.885Z,24.24
2022-08-28T15:40:13.089Z,24.50
2022-08-28T15:42:16.167Z,24.55
2022-08-28T15:44:18.598Z,25.29
2022-08-28T15:46:22.283Z,25.36
2022-08-28T15:48:24.542Z,25.00
2022-08-28T15:50:26.858Z,25.21
2022-08-28T15:52:29.530Z,25.43
2022-08-28T15:54:32.357Z,25.52
2022-08-28T15:56:34.822Z,25.21
2022-08-28T15:58:37.736Z,24.99
2022-08-28T16:00:40.325Z,25.11
2022-08-28T16:02:43.150Z,24.96
2022-08-28T16:04:45.865Z,25.31
2022-08-28T16:07:50.628Z,25.26
2022-08-28T16:09:53.027Z,25.23
2022-08-28T16:11:55.572Z,25.24
2022-08-28T16:13:58.359Z,25.62
2022-08-28T16:16:00.950Z,26.07
2022-08-28T16:18:03.700Z,26.24
2022-08-28T16:20:07.053Z,26.11
2022-08-28T16:22:17.900Z,26.54
2022-08-28T16:24:20.383Z,26.56
2022-08-28T16:26:23.233Z,26.33
2022-08-28T16:28:27.109Z,26.20
2022-08-28T16:30:29.444Z,26.26
2022-08-28T16:32:32.455Z,26.31
2022-08-28T16:34:35.309Z,26.10
2022-08-28T16:36:39.220Z,26.25
2022-08-28T16:38:46.145Z,26.71
2022-08-28T16:40:48.589Z,26.93
2022-08-28T16:42:52.238Z,27.68
2022-08-28T16:44:59.856Z,28.25
2022-08-28T16:47:02.271Z,27.26
2022-08-28T16:49:04.680Z,27.12
2022-08-28T16:51:07.398Z,27.78
2022-08-28T16:53:10.391Z,27.83
2022-08-28T16:55:16.271Z,27.22
2022-08-28T16:57:20.003Z,27.26
2022-08-28T16:59:24.194Z,27.74
2022-08-28T17:01:26.885Z,27.86
2022-08-28T17:03:29.244Z,27.88
2022-08-28T17:05:32.471Z,27.52
2022-08-28T17:07:35.469Z,27.32
2022-08-28T17:09:40.764Z,27.73
2022-08-28T17:11:43.277Z,27.67
2022-08-28T17:13:49.260Z,28.29
2022-08-28T17:15:52.789Z,27.78
2022-08-28T17:17:55.896Z,28.34
2022-08-28T17:19:58.036Z,28.88
2022-08-28T17:22:18.630Z,29.06
2022-08-28T17:24:22.689Z,28.78
2022-08-28T17:26:28.152Z,29.23
2022-08-28T17:28:31.368Z,29.41
2022-08-28T17:30:34.592Z,28.94
2022-08-28T17:32:37.235Z,30.26
2022-08-28T17:34:42.708Z,30.34
2022-08-28T17:36:45.022Z,30.27
2022-08-28T17:38:50.283Z,29.91
2022-08-28T17:40:53.486Z,29.87
2022-08-28T17:42:58.095Z,30.16
2022-08-28T17:45:00.257Z,30.05
2022-08-28T17:47:02.903Z,30.52
2022-08-28T17:49:07.277Z,30.55
2022-08-28T17:51:09.480Z,30.53
2022-08-28T17:53:12.921Z,30.56
2022-08-28T17:55:15.451Z,30.45
2022-08-28T17:57:17.898Z,30.90
2022-08-28T17:59:21.593Z,31.62
2022-08-28T18:01:26.492Z,31.76
2022-08-28T18:03:28.734Z,31.48
2022-08-28T18:05:31.430Z,31.37
2022-08-28T18:07:33.722Z,31.85
2022-08-28T18:09:36.111Z,31.26
2022-08-28T18:11:38.655Z,31.70
2022-08-28T18:13:42.712Z,31.53
2022-08-28T18:15:45.492Z,31.36
2022-08-28T18:17:58.018Z,31.42
2022-08-28T18:20:01.222Z,31.83
2022-08-28T18:22:03.435Z,31.89
2022-08-28T18:24:07.765Z,31.78
2022-08-28T18:26:10.223Z,32.21
2022-08-28T18:28:19.614Z,32.76
2022-08-28T18:30:24.764Z,32.53
2022-08-28T18:32:27.136Z,32.55
2022-08-28T18:34:32.227Z,33.06
2022-08-28T18:36:34.529Z,32.31
2022-08-28T18:38:37.177Z,32.74
2022-08-28T18:40:40.149Z,32.46
2022-08-28T18:42:42.644Z,32.27
2022-08-28T18:44:45.467Z,32.45
2022-08-28T18:46:48.516Z,32.11
2022-08-28T18:48:50.869Z,32.49
2022-08-28T18:50:53.587Z,32.44
2022-08-28T18:52:57.987Z,32.57
2022-08-28T18:55:00.663Z,32.55
2022-08-28T18:57:05.675Z,32.99
2022-08-28T18:59:08.239Z,32.57
2022-08-28T19:01:10.226Z,33.24
2022-08-28T19:03:12.389Z,32.91
2022-08-28T19:05:15.767Z,33.42
2022-08-28T19:07:17.821Z,33.33
2022-08-28T19:09:20.730Z,33.79
2022-08-28T19:11:22.696Z,33.80
2022-08-28T19:13:24.515Z,33.75
2022-08-28T19:15:26.311Z,33.66
2022-08-28T19:17:28.647Z,34.28
2022-08-28T19:19:32.319Z,34.21
2022-08-28T19:21:34.162Z,33.95
2022-08-28T19:23:36.012Z,34.56
2022-08-28T19:25:37.796Z,34.84
2022-08-28T19:27:41.369Z,35.09
2022-08-28T19:29:43.275Z,35.40
2022-08-28T19:31:45.124Z,35.08
2022-08-28T19:33:47.532Z,34.83
2022-08-28T19:35:50.139Z,34.80
2022-08-28T19:37:53.776Z,34.97
2022-08-28T19:39:56.630Z,34.65
2022-08-28T19:41:58.800Z,34.99
2022-08-28T19:44:00.677Z,34.51
2022-08-28T19:46:07.934Z,34.88
2022-08-28T19:48:13.250Z,35.08
2022-08-28T19:50:15.879Z,34.59
2022-08-28T19:52:17.919Z,34.85
2022-08-28T19:54:19.835Z,34.90
2022-08-28T19:56:26.830Z,34.94
2022-08-28T19:58:28.722Z,35.20
2022-08-28T20:00:33.108Z,35.25
2022-08-28T20:02:35.180Z,35.80
2022-08-28T20:04:38.351Z,36.19
2022-08-28T20:06:40.616Z,36.80
2022-08-28T20:08:43.069Z,36.93
2022-08-28T20:10:46.174Z,36.82
2022-08-28T20:12:48.987Z,36.46
2022-08-28T20:14:51.328Z,36.65
2022-08-28T20:16:54.616Z,36.71
2022-08-28T20:19:00.366Z,36.60
2022-08-28T20:21:02.821Z,36.83
2022-08-28T20:23:05.300Z,37.00
2022-08-28T20:25:09.794Z,36.85
2022-08-28T20:27:12.128Z,36.69
2022-08-28T20:29:14.662Z,36.01
2022-08-28T20:31:17.858Z,35.59
2022-08-28T20:33:19.832Z,35.40
2022-08-28T20:35:24.627Z,35.70
2022-08-28T20:37:29.669Z,34.97
2022-08-28T20:39:37.150Z,34.99
2022-08-28T20:41:40.698Z,34.84
2022-08-28T20:43:43.916Z,35.25
2022-08-28T20:45:46.071Z,34.99
2022-08-28T20:47:48.515Z,35.05
2022-08-28T20:49:50.595Z,35.36
2022-08-28T20:51:53.130Z,35.66
2022-08-28T20:53:55.146Z,35.50
2022-08-28T20:55:59.955Z,35.65
2022-08-28T20:58:02.027Z,35.66
2022-08-28T21:00:08.440Z,35.56
2022-08-28T21:02:23.130Z,35.89
2022-08-28T21:04:25.383Z,35.56
2022-08-28T21:06:29.091Z,35.38
2022-08-28T21:08:31.249Z,35.54
2022-08-28T21:10:34.521Z,35.55
2022-08-28T21:12:39.026Z,35.69
2022-08-28T21:14:41.092Z,35.69
2022-08-28T21:16:44.089Z,35.79
2022-08-28T21:19:14.111Z,35.65
2022-08-28T21:21:10.167Z,36.02
2022-08-28T21:23:12.096Z,35.92
2022-08-28T21:25:16.039Z,35.53
2022-08-28T21:27:18.518Z,35.92
2022-08-28T21:29:22.647Z,36.15
2022-08-28T21:31:25.211Z,36.17
2022-08-28T21:33:27.788Z,35.86
2022-08-28T21:35:29.897Z,36.03
2022-08-28T21:37:32.428Z,35.96
2022-08-28T21:39:35.251Z,36.08
2022-08-28T21:41:37.446Z,36.16
2022-08-28T21:43:40.856Z,35.84
2022-08-28T21:45:43.478Z,35.93
2022-08-28T21:47:45.506Z,35.62
2022-08-28T21:49:55.113Z,36.17
2022-08-28T21:51:57.096Z,36.29
2022-08-28T21:53:59.069Z,36.07
2022-08-28T21:56:01.099Z,36.41
2022-08-28T21:58:03.579Z,36.08
2022-08-28T22:00:10.389Z,36.77
2022-08-28T22:02:12.437Z,36.37
2022-08-28T22:04:14.511Z,36.84
2022-08-28T22:06:19.549Z,36.39
2022-08-28T22:08:24.966Z,36.24
2022-08-28T22:10:29.520Z,36.48
2022-08-28T22:12:32.881Z,36.28
2022-08-28T22:14:35.837Z,36.50
2022-08-28T22:16:38.080Z,36.61
2022-08-28T22:18:40.275Z,36.67
2022-08-28T22:21:02.867Z,37.03
2022-08-28T22:23:11.133Z,37.01
2022-08-28T22:25:13.546Z,37.03
2022-08-28T22:27:15.628Z,37.56
2022-08-28T22:29:17.947Z,37.53
2022-08-28T22:31:20.791Z,37.64
2022-08-28T22:33:23.028Z,37.20
2022-08-28T22:35:25.161Z,37.59
2022-08-28T22:37:27.306Z,37.48
2022-08-28T22:39:29.527Z,37.59
2022-08-28T22:41:32.597Z,38.21
2022-08-28T22:43:35.520Z,38.36
2022-08-28T22:45:37.845Z,39.34
2022-08-28T22:47:39.998Z,39.63
2022-08-28T22:49:42.780Z,40.30
2022-08-28T22:51:44.808Z,40.02
2022-08-28T22:53:48.368Z,40.58
2022-08-28T22:55:50.372Z,40.58
2022-08-28T22:57:52.485Z,40.79
2022-08-28T22:59:54.658Z,40.93
2022-08-28T23:01:58.943Z,40.89
2022-08-28T23:04:02.896Z,40.27
2022-08-28T23:06:05.395Z,40.20
2022-08-28T23:08:07.738Z,39.98
2022-08-28T23:10:11.859Z,39.82
2022-08-28T23:12:14.251Z,39.64
2022-08-28T23:14:16.465Z,39.83
2022-08-28T23:16:24.351Z,40.23
2022-08-28T23:18:29.366Z,40.07
2022-08-28T23:20:31.609Z,40.24
2022-08-28T23:22:35.910Z,40.61
2022-08-28T23:24:38.822Z,40.04
2022-08-28T23:26:42.003Z,40.54
2022-08-28T23:28:44.483Z,40.34
2022-08-28T23:30:49.738Z,40.31
2022-08-28T23:32:52.885Z,39.96
2022-08-28T23:34:55.097Z,40.11
2022-08-28T23:36:57.164Z,40.18
2022-08-28T23:39:03.053Z,40.30
2022-08-28T23:41:05.564Z,40.08
2022-08-28T23:43:07.980Z,40.43
2022-08-28T23:45:12.084Z,41.04
2022-08-28T23:47:14.647Z,40.39
2022-08-28T23:49:18.057Z,40.53
2022-08-28T23:51:21.901Z,40.00
2022-08-28T23:53:24.400Z,40.66
2022-08-28T23:55:27.012Z,40.35
2022-08-28T23:57:33.872Z,40.47
2022-08-28T23:59:36.048Z,40.68
